Weather at Utley Field

Public forecast

Using degrees Fahrenheit for public forecast. Weather courtesy of forecast.io.

Closest aviation weather report (METAR) to Utley Field

Closest report is Austin Bergstrom International Airport, 13.3 nm (24.6 km) W. Retrieved 2020/11/25 00:53 UTC (39 minutes ago):

KAUS 250053Z 17011KT 10SM CLR 25/18 A2982 RMK AO2 SLP090 T02500183

Closest aviation forecast (TAF) to Utley Field

Closest forecast is Austin Bergstrom International Airport, 13.3 nm (24.6 km) W. Retrieved 2020-11-25 00:36 UTC (56 minutes ago):

TAF KAUS 242334Z 2500/2606 17014G24KT P6SM FEW050 FM250100 17008KT P6SM SCT040 FM250600 21006KT P6SM VCTS BKN015CB FM251000 35006KT P6SM BKN040 FM251500 35012G22KT P6SM SCT050 FM252200 03008KT P6SM SCT100